Accueil
METAR-TAF:

METAR-TAF

Aéroports :

Aéroport d'Aurigny

Aurigny,

latitude: 49-43N, longitude: 002-12W, altitude: 71 m

Observation

Le bulletin a été fait il y a 26 minutes, à 06:50 UTC
Vent 9 kt de ouest/nord-ouest
Température 12°C
Humidité 94%
Pression 1015 hPa
Visibilité 10 km ou plus
Quelques nuages à une hauteur de 300 ft

METAR: EGJA 270650Z 30009KT 9999 FEW003 12/11 Q1015

Heure: 08:16 (07:16 UTC)

Prévision

Le bulletin a été fait il y a 32 minutes, à 06:44 UTC
Prévision valable du 27 à 06 UTC au 27 à 15 UTC
Vent 12 kt de ouest
Visibilité 10 km ou plus
Quelques nuages à une hauteur de 500 ft
Nuages épars à une hauteur de 1500 ft
Probabilité 30% :
Temporairement
du 27 à 14 UTC au 27 à 15 UTC
Visibilité: 9000 m
Nuages fragmentés à une hauteur de 1200 ft
faibles averses de pluie

TAF: EGJA 270644Z 2706/2715 28012KT 9999 FEW005 SCT015 PROB30 TEMPO 2714/2715 9000 -SHRA BKN012

Observations et prévisions météorologiques de plus de 4000 aéroports (messages METAR et TAF).

Les stations disponibles sont représentées par des disques jaunes et rouges sur la carte.

Passer la souris dessus pour voir le nom de la station.

Cliquer dessus pour voir les observations et prévisions météorologiques.

Pour changer de carte: cliquez sur les boutons verts avec une croix noire pour zoomer, sur le bouton vert avec un tiret pour effectuer un zoom arrière, ou sur les flèches vertes pour les cartes adjacentes.


METAR-TAF: